ADDS METAR Data INFO
IDs: Format: Raw Decoded Include TAF

Data at: 2007 UTC 19 Oct 2017

KSTJ 191953Z 17010KT 10SM CLR 26/11 A3005 RMK AO2 SLP172 T02610111
KSTJ 191853Z 15008KT 10SM CLR 25/12 A3006 RMK AO2 SLP177 T02500122
KSTJ 191753Z VRB05KT 10SM CLR 23/12 A3009 RMK AO2 SLP186 T02330117 10233 20044 58008
KSTJ 191653Z VRB03KT 10SM CLR 21/11 A3010 RMK AO2 SLP192 T02110111
KSTJ 191553Z 19006KT 10SM CLR 19/12 A3011 RMK AO2 SLP195 T01890117
KSTJ 191453Z 19003KT 10SM CLR 15/12 A3011 RMK AO2 SLP196 T01500117 53011
KSTJ 191353Z 00000KT 10SM CLR 10/10 A3010 RMK AO2 SLP195 T01000100
KSTJ 191301Z 00000KT 3SM BR SCT002 05/05 A3009 RMK AO2 TWR VIS 10 T00500050
KSTJ 191257Z 00000KT 1SM BR VV002 05/05 A3009 RMK AO2 TWR VIS 10 T00500050 RVRNO
KSTJ 191253Z 00000KT 1/4SM FG VV002 05/05 A3008 RMK AO2 TWR VIS 10 SLP188 T00500050 RVRNO
KSTJ 191240Z 36005KT 3/4SM BR VV002 05/05 A3008 RMK AO2 TWR VIS 10 VIS M1/4V5 T00500050 RVRNO
KSTJ 191217Z 36003KT 3SM BR OVC002 05/05 A3008 RMK AO2 TWR VIS 10 T00500050
KSTJ 191213Z 36003KT 1SM BR VV002 05/05 A3008 RMK AO2 TWR VIS 10 T00500050 RVRNO
KSTJ 191153Z 36003KT 1/4SM FG VV001 06/06 A3008 RMK AO2 TWR VIS 10 SLP186 T00560056 10089 20050 53008 RVRNO
KSTJ 191053Z AUTO 00000KT 1/4SM FG VV002 06/06 A3007 RMK AO2 TWR VIS 10 SLP181 T00560056 RVRNO $
KSTJ 190959Z AUTO 00000KT 1/2SM FG VV002 06/06 A3006 RMK AO2 TWR VIS 10 VIS 1/4V3 T00560056 RVRNO $
KSTJ 190953Z AUTO 00000KT 1SM BR VV002 06/06 A3006 RMK AO2 TWR VIS 10 SLP177 T00610061 RVRNO $
KSTJ 190938Z AUTO 00000KT 1/2SM FG VV002 06/06 A3006 RMK AO2 TWR VIS 10 T00560056 RVRNO $
KSTJ 190931Z AUTO 00000KT 3/4SM BR VV002 06/06 A3005 RMK AO2 TWR VIS 10 T00610061 RVRNO $
KSTJ 190928Z AUTO 00000KT 1 3/4SM BR FEW002 06/06 A3005 RMK AO2 TWR VIS 10 VIS 1/2V5 T00610061 $
KSTJ 190925Z AUTO 00000KT 3SM BR FEW002 06/06 A3005 RMK AO2 TWR VIS 10 T00610061 $
KSTJ 190915Z AUTO 00000KT 1 1/4SM BR FEW002 07/07 A3005 RMK AO2 TWR VIS 10 T00670067 $
KSTJ 190908Z AUTO 00000KT 3/4SM BR VV002 06/06 A3005 RMK AO2 TWR VIS 10 VIS 1/4V3 T00610061 RVRNO $
KSTJ 190853Z AUTO 00000KT 1/4SM FG CLR 07/07 A3005 RMK AO2 TWR VIS 10 SLP175 T00670067 50002 RVRNO $
KSTJ 190830Z AUTO 00000KT 1/2SM FG CLR 07/07 A3005 RMK AO2 TWR VIS 10 T00720072 RVRNO $
KSTJ 190826Z AUTO 00000KT 1 1/4SM BR CLR 07/07 A3005 RMK AO2 TWR VIS 10 T00720072 $
KSTJ 190815Z AUTO 00000KT 4SM BR CLR 07/07 A3006 RMK AO2 T00720072 $
KSTJ 190806Z AUTO 00000KT 1 1/4SM BR CLR 07/07 A3006 RMK AO2 TWR VIS 10 T00720072 $
KSTJ 190753Z AUTO 00000KT 2 1/2SM BR CLR 07/07 A3006 RMK AO2 TWR VIS 10 SLP176 T00720072 $
KSTJ 190736Z AUTO 00000KT 4SM BR CLR 07/07 A3006 RMK AO2 T00720072 $
KSTJ 190730Z AUTO 00000KT 1SM BR CLR 08/08 A3006 RMK AO2 TWR VIS 10 VIS 1/2V5 T00780078 RVRNO $
KSTJ 190702Z AUTO 00000KT 1/2SM FG CLR 08/08 A3005 RMK AO2 TWR VIS 10 T00780078 RVRNO
KSTJ 190659Z AUTO 00000KT 1 3/4SM BR FEW003 08/08 A3005 RMK AO2 TWR VIS 10 VIS 3/4V5 T00830078
KSTJ 190653Z AUTO 00000KT 5SM BR FEW003 08/07 A3005 RMK AO2 SLP175 T00780072
KSTJ 190553Z AUTO 00000KT 10SM CLR 08/08 A3005 RMK AO2 SLP173 T00830083 10183 20083 402440083 51006
KSTJ 190453Z AUTO 00000KT 10SM CLR 09/09 A3004 RMK AO2 SLP171 T00890089
KSTJ 190353Z AUTO 00000KT 10SM CLR 09/08 A3004 RMK AO2 SLP171 T00890083
KSTJ 190253Z AUTO 00000KT 10SM CLR 10/09 A3003 RMK AO2 SLP167 T01000094 51012
KSTJ 190153Z AUTO 00000KT 10SM CLR 11/11 A3002 RMK AO2 SLP167 T01060106
KSTJ 190053Z 00000KT 10SM CLR 14/11 A3001 RMK AO2 SLP162 T01440111
KSTJ 182353Z 15006KT 10SM CLR 18/11 A2999 RMK AO2 SLP154 T01830111 10244 20183 53007
KSTJ 182253Z 17008KT 10SM CLR 22/11 A2998 RMK AO2 SLP148 T02170111
KSTJ 182153Z 20012KT 10SM CLR 24/10 A2998 RMK AO2 SLP146 T02390100
KSTJ 182053Z AUTO 19010KT 10SM CLR 24/09 A2997 RMK AO2 SLP144 T02440094 55010
KSTJ 181953Z 20013KT 10SM CLR 22/09 A2997 RMK AO2 SLP144 T02220094
KSTJ 181853Z 20011G19KT 10SM CLR 23/09 A2997 RMK AO2 SLP144 T02280089
KSTJ 181753Z 20010G19KT 10SM CLR 22/08 A3000 RMK AO2 SLP154 T02220083 10222 20100 55009
KSTJ 181653Z 20013G18KT 10SM CLR 21/08 A3000 RMK AO2 SLP154 T02060083
KSTJ 181553Z 20012G21KT 10SM CLR 18/08 A3002 RMK AO2 SLP161 T01830083
KSTJ 181453Z 19013G19KT 10SM CLR 16/08 A3003 RMK AO2 SLP166 T01610078 58001
KSTJ 181353Z 17007KT 10SM CLR 13/08 A3003 RMK AO2 SLP169 T01330083
KSTJ 181253Z 17006KT 10SM CLR 10/08 A3003 RMK AO2 SLP171 T01000078
KSTJ 181153Z 18006KT 10SM CLR 11/08 A3003 RMK AO2 SLP167 T01110078 10139 20100 56002
KSTJ 181053Z AUTO 19004KT 10SM CLR 10/08 A3003 RMK AO2 SLP166 T01000078
KSTJ 180953Z AUTO 19007KT 10SM CLR 12/08 A3003 RMK AO2 SLP165 T01220083
KSTJ 180853Z AUTO 20007KT 10SM CLR 12/08 A3004 RMK AO2 SLP167 T01170083 58007